Atlantic City International Airport
KACY : now visible

Airfield :











YOU CAN JOIN US ON...

 
LOGIN :

Register | Disclaimer

   EN    FR    IT 

 









Legend :    VFR   Marginal VFR   IFR   Intensive IFR   Very Intensive IFR
Visi :
Ceiling :
>= 8 km
>= 3000ft
5 to 8 km
1000 to 3000 ft
1500m to 5 km
500 to 1000 ft
800 to 1500m
200 to 500 ft
< 800m
< 200 ft
Symbols :   Thunderstorms  Fog  Heavy snow  Heavy precipitations  Wind > 20 kt






- Airport Elevation : 75 ft
- IATA code : ACY


KACY - Atlantic City International

CURRENT METAR :
  • 261654Z 06007KT 10SM OVC007 10/08 A2993 RMK AO2 SLP135 T01000078

EXPIRED METARs :
  • 261554Z 00000KT 10SM OVC006 10/08 A2996 RMK AO2 CIG 005V010 SLP143 T01000078
  • 261454Z 02003KT 6SM BR OVC006 09/08 A2996 RMK AO2 SLP143 T00940078 53006

TAF KACY
Valid from the 26 at 16:00 until the 27 at 12:00 UTC


261553Z 2616/2712 04006KT P6SM OVC006
TEMPO 2618/2622 SCT006 BKN020
FM262200 09008KT 5SM -SHRA OVC008
FM270200 12011G16KT 2SM RA OVC003
FM270700 23013G24KT 2SM RA OVC008
FM270900 26014G26KT P6SM BKN015
FM271100 26020G30KT P6SM SCT040



MET'MAP, your aeronautical weather chart ! - Copyright ORBIFLY December 2007 - Disclaimer

ORBIFLY MET'MAP TEAM :

Programming & Development : Alexandra Zaïnal
Concept & original design : Baudouin d'Aumeries
Assistance for programming : Marc-Olivier Méhu
Technical & hardware support : Manuel Goepfert

Contact : metmap@orbifly.com




SOURCES & CREDITS :

   NOAA       Earth
Advisory